createdAt,value
2023-03-02T00:01:25.182Z,50.40
2023-03-02T00:03:53.449Z,50.20
2023-03-02T00:06:22.720Z,49.70
2023-03-02T00:08:50.624Z,49.50
2023-03-02T00:11:18.483Z,50.10
2023-03-02T00:13:46.374Z,49.50
2023-03-02T00:16:14.260Z,50.20
2023-03-02T00:18:42.113Z,50.10
2023-03-02T00:21:10.557Z,49.50
2023-03-02T00:23:39.810Z,49.40
2023-03-02T00:26:08.287Z,48.80
2023-03-02T00:28:36.120Z,49.70
2023-03-02T00:31:05.914Z,48.30
2023-03-02T00:33:34.633Z,48.30
2023-03-02T00:36:02.888Z,48.10
2023-03-02T00:38:30.969Z,47.50
2023-03-02T00:41:00.159Z,47.70
2023-03-02T00:43:28.311Z,47.80
2023-03-02T00:45:56.393Z,48.30
2023-03-02T00:48:24.240Z,48.70
2023-03-02T00:50:52.259Z,48.90
2023-03-02T00:53:20.084Z,49.00
2023-03-02T00:55:55.307Z,49.20
2023-03-02T00:58:24.593Z,48.70
2023-03-02T01:00:52.432Z,48.60
2023-03-02T01:03:20.696Z,48.50
2023-03-02T01:05:48.645Z,48.80
2023-03-02T01:08:16.507Z,48.50
2023-03-02T01:10:44.317Z,48.50
2023-03-02T01:13:12.123Z,48.60
2023-03-02T01:15:41.379Z,49.00
2023-03-02T01:18:10.680Z,48.50
2023-03-02T01:20:39.833Z,48.60
2023-03-02T01:23:07.650Z,48.60
2023-03-02T01:25:35.529Z,48.50
2023-03-02T01:28:03.361Z,48.50
2023-03-02T01:30:31.216Z,48.50
2023-03-02T01:33:00.379Z,48.10
2023-03-02T01:35:28.248Z,48.10
2023-03-02T01:37:56.064Z,48.10
2023-03-02T01:40:23.947Z,48.40
2023-03-02T01:42:56.071Z,48.40
2023-03-02T01:45:58.143Z,48.30
2023-03-02T01:48:32.681Z,48.30
2023-03-02T01:51:02.606Z,48.90
2023-03-02T01:53:33.399Z,49.30
2023-03-02T01:56:03.511Z,49.80
2023-03-02T01:58:37.074Z,51.00
2023-03-02T02:01:05.870Z,51.70
2023-03-02T02:03:35.518Z,52.00
2023-03-02T02:06:12.468Z,52.10
2023-03-02T02:08:40.825Z,51.70
2023-03-02T02:11:08.665Z,51.70
2023-03-02T02:13:36.612Z,52.20
2023-03-02T02:16:05.534Z,52.30
2023-03-02T02:18:36.918Z,52.60
2023-03-02T02:21:05.956Z,52.30
2023-03-02T02:23:40.676Z,52.30
2023-03-02T02:26:18.420Z,52.10
2023-03-02T02:28:57.563Z,51.90
2023-03-02T02:31:31.732Z,51.80
2023-03-02T02:34:06.117Z,51.50
2023-03-02T02:36:39.564Z,51.10
2023-03-02T02:39:09.661Z,52.30
2023-03-02T02:41:40.998Z,52.20
2023-03-02T02:44:13.960Z,52.40
2023-03-02T02:46:41.885Z,52.20
2023-03-02T02:49:22.458Z,52.90
2023-03-02T02:51:50.336Z,52.90
2023-03-02T02:54:20.539Z,52.90
2023-03-02T02:56:51.053Z,52.90
2023-03-02T02:59:22.367Z,53.50
2023-03-02T03:01:51.362Z,53.80
2023-03-02T03:04:21.964Z,54.10
2023-03-02T03:06:55.525Z,55.10
2023-03-02T03:09:23.945Z,55.00
2023-03-02T03:11:55.803Z,54.70
2023-03-02T03:14:28.093Z,55.40
2023-03-02T03:16:56.549Z,55.10
2023-03-02T03:19:26.521Z,54.70
2023-03-02T03:21:56.626Z,54.70
2023-03-02T03:24:25.187Z,54.50
2023-03-02T03:26:55.036Z,54.70
2023-03-02T03:29:24.678Z,55.10
2023-03-02T03:31:53.284Z,54.80
2023-03-02T03:34:21.472Z,54.90
2023-03-02T03:36:50.161Z,55.10
2023-03-02T03:39:18.904Z,54.40
2023-03-02T03:41:46.718Z,54.10
2023-03-02T03:44:15.866Z,53.40
2023-03-02T03:46:43.723Z,54.40
2023-03-02T03:49:11.597Z,54.50
2023-03-02T03:51:39.485Z,53.90
2023-03-02T03:54:09.561Z,53.90
2023-03-02T03:56:40.972Z,54.30
2023-03-02T03:59:14.952Z,54.50
2023-03-02T04:01:47.062Z,54.80
2023-03-02T04:04:16.826Z,54.50
2023-03-02T04:06:45.046Z,54.70
2023-03-02T04:09:15.462Z,54.30
2023-03-02T04:11:45.520Z,54.40
2023-03-02T04:14:14.573Z,54.90
2023-03-02T04:16:44.793Z,55.10
2023-03-02T04:19:13.960Z,54.90
2023-03-02T04:21:45.090Z,54.50
2023-03-02T04:24:14.247Z,53.60
2023-03-02T04:26:43.576Z,53.40
2023-03-02T04:29:13.081Z,53.60
2023-03-02T04:31:41.733Z,53.30
2023-03-02T04:34:11.366Z,53.80
2023-03-02T04:36:40.870Z,53.90
2023-03-02T04:39:09.276Z,54.20
2023-03-02T04:41:37.511Z,54.10
2023-03-02T04:44:05.910Z,54.10
2023-03-02T04:46:34.588Z,54.80
2023-03-02T04:49:02.750Z,54.90
2023-03-02T04:51:34.369Z,55.10
2023-03-02T04:54:06.381Z,55.30
2023-03-02T04:56:35.424Z,55.90
2023-03-02T04:59:03.865Z,56.40
2023-03-02T05:01:31.807Z,56.60
2023-03-02T05:04:02.463Z,57.50
2023-03-02T05:06:32.388Z,57.60
2023-03-02T05:09:00.677Z,58.00
2023-03-02T05:11:28.929Z,58.20
2023-03-02T05:14:00.036Z,58.60
2023-03-02T05:16:30.053Z,58.50
2023-03-02T05:18:57.982Z,59.70
2023-03-02T05:21:26.687Z,59.60
2023-03-02T05:23:56.210Z,58.80
2023-03-02T05:26:24.560Z,58.80
2023-03-02T05:28:54.013Z,58.20
2023-03-02T05:31:24.760Z,57.40
2023-03-02T05:33:52.639Z,58.00
2023-03-02T05:36:23.169Z,58.00
2023-03-02T05:38:51.619Z,57.70
2023-03-02T05:41:20.902Z,57.80
2023-03-02T05:43:48.849Z,58.40
2023-03-02T05:46:17.373Z,59.20
2023-03-02T05:48:45.443Z,60.80
2023-03-02T05:51:13.690Z,61.00
2023-03-02T05:53:41.565Z,61.70
2023-03-02T05:56:10.401Z,61.70
2023-03-02T05:58:39.648Z,61.70
2023-03-02T06:01:11.748Z,61.70
2023-03-02T06:03:40.466Z,62.00
2023-03-02T06:06:08.340Z,62.00
2023-03-02T06:08:40.992Z,61.80
2023-03-02T06:11:09.774Z,61.80
2023-03-02T06:13:39.432Z,61.80
2023-03-02T06:16:08.144Z,61.50
2023-03-02T06:18:36.995Z,61.00
2023-03-02T06:21:05.737Z,60.30
2023-03-02T06:23:33.729Z,60.20
2023-03-02T06:26:01.655Z,60.10
2023-03-02T06:28:29.557Z,59.20
2023-03-02T06:31:00.450Z,59.00
2023-03-02T06:33:28.396Z,58.70
2023-03-02T06:35:56.526Z,58.00
2023-03-02T06:38:24.822Z,56.10
2023-03-02T06:40:52.669Z,54.20
2023-03-02T06:43:20.591Z,52.70
2023-03-02T06:45:48.478Z,51.90
2023-03-02T06:48:17.884Z,50.80
2023-03-02T06:50:45.732Z,49.40
2023-03-02T06:53:15.171Z,49.00
2023-03-02T06:55:43.043Z,47.80
2023-03-02T06:58:13.231Z,46.70
2023-03-02T07:00:41.434Z,45.60
2023-03-02T07:03:09.271Z,45.50
2023-03-02T07:05:38.540Z,44.60
2023-03-02T07:08:06.470Z,42.90
2023-03-02T07:10:34.463Z,42.80
2023-03-02T07:13:02.384Z,41.70
2023-03-02T07:15:30.322Z,42.40
2023-03-02T07:17:58.215Z,41.50
2023-03-02T07:20:26.150Z,39.80
2023-03-02T07:22:55.467Z,39.20
2023-03-02T07:25:23.357Z,38.90
2023-03-02T07:27:51.200Z,39.00
2023-03-02T07:30:21.239Z,37.60
2023-03-02T07:32:49.361Z,36.50
2023-03-02T07:35:18.126Z,36.50
2023-03-02T07:37:46.067Z,36.50
2023-03-02T07:40:17.252Z,36.60
2023-03-02T07:42:45.169Z,36.00
2023-03-02T07:45:13.143Z,35.40
2023-03-02T07:47:41.039Z,34.60
2023-03-02T07:50:10.399Z,34.20
2023-03-02T07:52:38.262Z,34.90
2023-03-02T07:55:06.825Z,33.90
2023-03-02T07:57:36.257Z,34.00
2023-03-02T08:00:05.660Z,34.30
2023-03-02T08:02:33.847Z,33.00
2023-03-02T08:05:01.808Z,32.70
2023-03-02T08:07:29.712Z,33.40
2023-03-02T08:09:58.017Z,33.20
2023-03-02T08:12:25.951Z,33.80
2023-03-02T08:14:55.458Z,32.80
2023-03-02T08:17:23.650Z,32.80
2023-03-02T08:19:51.824Z,32.70
2023-03-02T08:22:19.715Z,32.60
2023-03-02T08:24:47.821Z,32.70
2023-03-02T08:27:16.767Z,32.00
2023-03-02T08:29:44.627Z,30.90
2023-03-02T08:32:14.045Z,31.50
2023-03-02T08:34:41.997Z,31.10
2023-03-02T08:37:09.912Z,30.90
2023-03-02T08:39:37.769Z,31.80
2023-03-02T08:42:05.679Z,32.20
2023-03-02T08:44:33.843Z,32.20
2023-03-02T08:47:01.756Z,31.70
2023-03-02T08:49:31.110Z,31.70
2023-03-02T08:52:00.726Z,30.40
2023-03-02T08:54:28.758Z,29.80
2023-03-02T08:56:56.638Z,31.10
2023-03-02T08:59:24.555Z,29.80
2023-03-02T09:01:52.431Z,30.20
2023-03-02T09:04:20.449Z,29.00
2023-03-02T09:06:49.718Z,28.40
2023-03-02T09:09:17.786Z,28.70
2023-03-02T09:11:46.465Z,27.80
2023-03-02T09:14:14.418Z,28.40
2023-03-02T09:16:42.769Z,28.60
2023-03-02T09:19:13.032Z,29.90
2023-03-02T09:21:40.960Z,29.00
2023-03-02T09:24:10.466Z,28.90
2023-03-02T09:26:39.294Z,29.30
2023-03-02T09:29:07.909Z,29.80
2023-03-02T09:31:36.434Z,30.30
2023-03-02T09:34:05.347Z,29.40
2023-03-02T09:36:34.525Z,29.30
2023-03-02T09:39:08.457Z,30.10
2023-03-02T09:42:06.878Z,28.90
2023-03-02T09:44:59.011Z,29.10
2023-03-02T09:47:35.911Z,28.70
2023-03-02T09:50:15.323Z,29.30
2023-03-02T09:52:51.832Z,29.20
2023-03-02T09:55:23.239Z,29.20
2023-03-02T09:57:53.834Z,31.40
2023-03-02T10:00:29.916Z,29.70
2023-03-02T10:03:14.871Z,29.10
2023-03-02T10:05:47.336Z,32.10
2023-03-02T10:08:18.276Z,29.20
2023-03-02T10:10:47.980Z,28.20
2023-03-02T10:13:24.326Z,29.80
2023-03-02T10:16:07.736Z,29.40
2023-03-02T10:18:40.672Z,28.50
2023-03-02T10:21:15.417Z,28.10
2023-03-02T10:23:47.172Z,28.80
2023-03-02T10:26:24.201Z,29.10
2023-03-02T10:29:02.294Z,27.60
2023-03-02T10:31:31.609Z,28.60
2023-03-02T10:34:00.623Z,27.50
2023-03-02T10:36:30.459Z,27.80
2023-03-02T10:39:00.478Z,27.70
2023-03-02T10:41:32.930Z,28.00
2023-03-02T10:44:07.308Z,28.70
2023-03-02T10:46:42.334Z,28.00
2023-03-02T10:49:26.691Z,28.50
2023-03-02T10:52:00.372Z,30.00
2023-03-02T10:54:30.041Z,29.00
2023-03-02T10:57:00.859Z,30.00
2023-03-02T10:59:44.773Z,28.20
2023-03-02T11:02:22.450Z,28.60
2023-03-02T11:04:57.205Z,28.30
2023-03-02T11:07:28.717Z,30.30
2023-03-02T11:09:59.131Z,29.40
2023-03-02T11:12:27.149Z,29.10
2023-03-02T11:15:27.746Z,27.70
2023-03-02T11:18:07.683Z,27.50
2023-03-02T11:20:39.603Z,27.40
2023-03-02T11:23:16.576Z,28.20
2023-03-02T11:25:49.723Z,28.20
2023-03-02T11:28:32.895Z,28.10
2023-03-02T11:31:06.572Z,27.40
2023-03-02T11:33:40.724Z,27.70
2023-03-02T11:36:17.018Z,29.00
2023-03-02T11:38:49.510Z,27.80
2023-03-02T11:41:29.775Z,27.50
2023-03-02T11:44:01.551Z,27.60
2023-03-02T11:46:33.355Z,28.70
2023-03-02T11:49:05.944Z,27.70
2023-03-02T11:51:37.900Z,27.90
2023-03-02T11:54:17.066Z,27.60
2023-03-02T11:56:45.246Z,28.00
2023-03-02T11:59:18.264Z,27.50
2023-03-02T12:01:50.975Z,27.30
2023-03-02T12:04:28.978Z,28.20
2023-03-02T12:06:57.429Z,27.20
2023-03-02T12:09:36.086Z,28.90
2023-03-02T12:12:35.539Z,28.90
2023-03-02T12:15:03.817Z,27.30
2023-03-02T12:17:36.572Z,29.50
2023-03-02T12:20:24.631Z,26.90
2023-03-02T12:22:52.626Z,27.50
2023-03-02T12:25:36.815Z,30.00
2023-03-02T12:28:05.013Z,28.70
2023-03-02T12:30:33.000Z,28.00
2023-03-02T12:33:19.292Z,28.10
2023-03-02T12:35:49.957Z,27.70
2023-03-02T12:38:27.970Z,27.20
2023-03-02T12:41:26.095Z,27.80
2023-03-02T12:44:07.721Z,28.00
2023-03-02T12:46:37.583Z,26.60
2023-03-02T12:49:18.041Z,27.50
2023-03-02T12:51:52.405Z,28.20
2023-03-02T12:54:22.513Z,27.00
2023-03-02T12:56:50.800Z,27.80
2023-03-02T12:59:22.900Z,26.50
2023-03-02T13:01:50.811Z,27.50
2023-03-02T13:04:24.887Z,28.60
2023-03-02T13:06:54.662Z,27.50
2023-03-02T13:09:23.783Z,28.60
2023-03-02T13:11:54.760Z,29.20
2023-03-02T13:14:26.832Z,28.80
2023-03-02T13:16:56.960Z,28.80
2023-03-02T13:19:28.307Z,29.00
2023-03-02T13:21:56.441Z,28.90
2023-03-02T13:24:36.123Z,29.70
2023-03-02T13:27:07.888Z,27.80
2023-03-02T13:29:35.955Z,29.90
2023-03-02T13:32:18.058Z,29.80
2023-03-02T13:34:52.619Z,28.00
2023-03-02T13:37:33.775Z,29.10
2023-03-02T13:40:03.328Z,28.30
2023-03-02T13:42:37.204Z,29.90
2023-03-02T13:45:25.229Z,28.30
2023-03-02T13:47:53.268Z,29.20
2023-03-02T13:50:26.032Z,29.90
2023-03-02T13:52:56.398Z,29.90
2023-03-02T13:55:24.541Z,28.80
2023-03-02T13:57:54.476Z,29.70
2023-03-02T14:00:32.626Z,30.40
2023-03-02T14:03:01.076Z,30.50
2023-03-02T14:05:33.304Z,29.10
2023-03-02T14:08:02.791Z,29.00
2023-03-02T14:10:30.756Z,29.50
2023-03-02T14:13:05.158Z,29.00
2023-03-02T14:15:33.620Z,29.80
2023-03-02T14:18:01.865Z,29.10
2023-03-02T14:20:31.187Z,28.90
2023-03-02T14:23:03.423Z,28.80
2023-03-02T14:25:31.427Z,29.50
2023-03-02T14:27:59.277Z,29.00
2023-03-02T14:30:28.237Z,28.40
2023-03-02T14:32:56.104Z,29.50
2023-03-02T14:35:26.502Z,30.60
2023-03-02T14:37:55.790Z,30.40
2023-03-02T14:40:27.413Z,29.20
2023-03-02T14:42:55.408Z,30.10
2023-03-02T14:45:24.029Z,30.60
2023-03-02T14:47:52.122Z,30.10
2023-03-02T14:50:20.101Z,31.00
2023-03-02T14:52:50.893Z,29.60
2023-03-02T14:55:25.757Z,28.70
2023-03-02T14:57:57.195Z,29.80
2023-03-02T15:00:25.592Z,30.60
2023-03-02T15:02:53.672Z,30.50
2023-03-02T15:05:21.982Z,29.80
2023-03-02T15:07:50.391Z,28.20
2023-03-02T15:10:22.153Z,28.80
2023-03-02T15:12:50.156Z,28.40
2023-03-02T15:15:18.563Z,26.20
2023-03-02T15:17:46.557Z,28.70
2023-03-02T15:20:16.834Z,28.30
2023-03-02T15:22:44.815Z,28.60
2023-03-02T15:25:12.685Z,27.90
2023-03-02T15:27:42.574Z,28.70
2023-03-02T15:30:12.333Z,28.00
2023-03-02T15:32:40.351Z,28.20
2023-03-02T15:35:09.099Z,27.60
2023-03-02T15:37:37.169Z,28.50
2023-03-02T15:40:06.219Z,28.60
2023-03-02T15:42:34.243Z,29.20
2023-03-02T15:45:03.445Z,29.20
2023-03-02T15:47:33.539Z,28.20
2023-03-02T15:50:01.411Z,29.80
2023-03-02T15:52:29.317Z,28.70
2023-03-02T15:54:57.152Z,28.00
2023-03-02T15:57:25.192Z,28.60
2023-03-02T15:59:53.055Z,28.80
2023-03-02T16:02:22.274Z,29.40
2023-03-02T16:04:50.212Z,28.90
2023-03-02T16:07:18.131Z,28.70
2023-03-02T16:09:46.354Z,30.10
2023-03-02T16:12:14.350Z,30.70
2023-03-02T16:14:42.222Z,29.60
2023-03-02T16:17:10.085Z,30.00
2023-03-02T16:19:39.309Z,31.50
2023-03-02T16:22:07.157Z,31.50
2023-03-02T16:24:35.036Z,32.30
2023-03-02T16:27:03.029Z,30.20
2023-03-02T16:29:31.111Z,30.80
2023-03-02T16:31:59.120Z,32.10
2023-03-02T16:34:27.180Z,30.10
2023-03-02T16:36:56.442Z,31.10
2023-03-02T16:39:24.514Z,32.10
2023-03-02T16:41:52.506Z,31.80
2023-03-02T16:44:20.955Z,30.00
2023-03-02T16:46:48.874Z,31.70
2023-03-02T16:49:16.837Z,31.60
2023-03-02T16:51:45.104Z,31.90
2023-03-02T16:54:17.177Z,31.00
2023-03-02T16:56:47.226Z,32.20
2023-03-02T16:59:15.324Z,31.80
2023-03-02T17:01:43.289Z,33.80
2023-03-02T17:04:11.233Z,32.40
2023-03-02T17:06:41.696Z,32.70
2023-03-02T17:09:10.531Z,32.90
2023-03-02T17:11:40.640Z,33.60
2023-03-02T17:14:08.538Z,34.00
2023-03-02T17:16:36.417Z,33.60
2023-03-02T17:19:04.456Z,33.90
2023-03-02T17:21:32.375Z,33.40
2023-03-02T17:24:00.250Z,33.80
2023-03-02T17:26:28.184Z,32.60
2023-03-02T17:28:57.408Z,34.80
2023-03-02T17:31:25.298Z,33.60
2023-03-02T17:33:53.256Z,32.90
2023-03-02T17:36:21.111Z,34.40
2023-03-02T17:38:49.160Z,35.10
2023-03-02T17:41:17.056Z,35.00
2023-03-02T17:43:45.185Z,34.10
2023-03-02T17:46:20.166Z,34.10
2023-03-02T17:48:49.255Z,34.00
2023-03-02T17:51:18.318Z,32.10
2023-03-02T17:53:48.294Z,32.40
2023-03-02T17:56:18.859Z,31.20
2023-03-02T17:58:47.220Z,32.00
2023-03-02T18:01:16.564Z,31.70
2023-03-02T18:03:45.544Z,31.50
2023-03-02T18:06:13.603Z,30.80
2023-03-02T18:08:41.764Z,31.10
2023-03-02T18:11:09.627Z,29.60
2023-03-02T18:13:37.629Z,30.40
2023-03-02T18:16:05.971Z,29.80
2023-03-02T18:18:35.531Z,30.90
2023-03-02T18:21:03.818Z,31.00
2023-03-02T18:23:31.838Z,30.30
2023-03-02T18:25:59.833Z,30.50
2023-03-02T18:28:27.719Z,31.00
2023-03-02T18:30:55.641Z,30.60
2023-03-02T18:33:23.598Z,31.10
2023-03-02T18:35:52.808Z,30.60
2023-03-02T18:38:21.097Z,29.90
2023-03-02T18:40:48.930Z,29.40
2023-03-02T18:43:16.781Z,29.30
2023-03-02T18:45:44.813Z,30.20
2023-03-02T18:48:12.686Z,31.00
2023-03-02T18:50:40.606Z,31.50
2023-03-02T18:53:12.442Z,31.70
2023-03-02T18:55:41.355Z,31.80
2023-03-02T18:58:11.440Z,31.20
2023-03-02T19:00:39.345Z,31.50
2023-03-02T19:03:07.295Z,31.40
2023-03-02T19:05:35.161Z,30.50
2023-03-02T19:08:03.572Z,30.80
2023-03-02T19:10:32.839Z,31.70
2023-03-02T19:13:00.678Z,32.20
2023-03-02T19:15:28.537Z,32.80
2023-03-02T19:17:57.219Z,32.90
2023-03-02T19:20:27.191Z,32.80
2023-03-02T19:22:55.616Z,33.20
2023-03-02T19:25:24.353Z,33.10
2023-03-02T19:27:53.775Z,33.00
2023-03-02T19:30:25.460Z,34.40
2023-03-02T19:32:54.247Z,34.10
2023-03-02T19:35:23.195Z,32.10
2023-03-02T19:37:51.514Z,33.50
2023-03-02T19:40:20.745Z,33.70
2023-03-02T19:42:48.681Z,34.00
2023-03-02T19:45:21.194Z,34.10
2023-03-02T19:47:49.484Z,34.30
2023-03-02T19:50:19.409Z,35.20
2023-03-02T19:52:47.909Z,35.70
2023-03-02T19:55:16.703Z,36.00
2023-03-02T19:57:44.594Z,36.80
2023-03-02T20:00:16.417Z,36.70
2023-03-02T20:02:45.706Z,37.30
2023-03-02T20:05:13.978Z,37.00
2023-03-02T20:07:42.636Z,37.30
2023-03-02T20:10:14.337Z,37.30
2023-03-02T20:12:42.690Z,37.60
2023-03-02T20:15:11.250Z,38.40
2023-03-02T20:17:39.159Z,38.20
2023-03-02T20:20:10.025Z,38.90
2023-03-02T20:22:37.955Z,39.30
2023-03-02T20:25:06.522Z,39.60
2023-03-02T20:27:34.422Z,39.60
2023-03-02T20:30:02.326Z,40.30
2023-03-02T20:32:30.367Z,39.80
2023-03-02T20:34:58.917Z,38.70
2023-03-02T20:37:28.192Z,38.70
2023-03-02T20:39:56.454Z,38.50
2023-03-02T20:42:24.404Z,38.40
2023-03-02T20:44:53.390Z,38.90
2023-03-02T20:47:21.829Z,39.30
2023-03-02T20:49:50.099Z,39.40
2023-03-02T20:52:18.069Z,39.80
2023-03-02T20:54:47.307Z,40.30
2023-03-02T20:57:17.518Z,40.80
2023-03-02T20:59:46.126Z,41.20
2023-03-02T21:02:15.480Z,41.60
2023-03-02T21:04:43.461Z,41.40
2023-03-02T21:07:11.944Z,40.90
2023-03-02T21:09:40.191Z,40.70
2023-03-02T21:12:11.822Z,41.20
2023-03-02T21:14:40.140Z,41.40
2023-03-02T21:17:09.147Z,41.40
2023-03-02T21:19:37.448Z,41.50
2023-03-02T21:22:06.524Z,41.50
2023-03-02T21:24:34.363Z,41.50
2023-03-02T21:27:02.629Z,41.40
2023-03-02T21:29:31.884Z,41.40
2023-03-02T21:31:59.787Z,41.70
2023-03-02T21:34:27.725Z,41.90
2023-03-02T21:36:55.793Z,42.00
2023-03-02T21:39:24.548Z,42.80
2023-03-02T21:41:53.190Z,43.10
2023-03-02T21:44:21.267Z,43.60
2023-03-02T21:46:50.937Z,43.80
2023-03-02T21:49:21.093Z,44.00
2023-03-02T21:51:50.024Z,44.00
2023-03-02T21:54:17.951Z,44.20
2023-03-02T21:56:46.201Z,44.10
2023-03-02T21:59:14.101Z,44.60
2023-03-02T22:01:42.329Z,45.90
2023-03-02T22:04:11.623Z,46.00
2023-03-02T22:06:42.482Z,45.80
2023-03-02T22:09:12.348Z,45.80
2023-03-02T22:11:40.203Z,45.70
2023-03-02T22:14:13.240Z,45.70
2023-03-02T22:16:45.084Z,46.00
2023-03-02T22:19:26.385Z,45.80
2023-03-02T22:21:55.893Z,46.20
2023-03-02T22:24:25.572Z,45.80
2023-03-02T22:27:02.812Z,46.50
2023-03-02T22:29:33.626Z,47.20
2023-03-02T22:32:14.024Z,47.60
2023-03-02T22:34:45.280Z,48.30
2023-03-02T22:37:15.246Z,49.00
2023-03-02T22:39:43.100Z,48.50
2023-03-02T22:42:15.218Z,49.50
2023-03-02T22:44:43.202Z,49.00
2023-03-02T22:47:17.240Z,48.80
2023-03-02T22:49:47.528Z,49.00
2023-03-02T22:52:18.026Z,50.10
2023-03-02T22:54:46.632Z,50.70
2023-03-02T22:57:26.998Z,51.40
2023-03-02T23:00:05.712Z,49.70
2023-03-02T23:02:42.199Z,50.40
2023-03-02T23:05:23.960Z,51.00
2023-03-02T23:07:52.517Z,51.60
2023-03-02T23:10:23.161Z,51.40
2023-03-02T23:12:51.168Z,51.70
2023-03-02T23:15:22.055Z,52.70
2023-03-02T23:17:50.067Z,52.80
2023-03-02T23:20:17.994Z,52.80
2023-03-02T23:22:47.215Z,53.40
2023-03-02T23:25:15.767Z,54.20
2023-03-02T23:27:43.636Z,53.90
2023-03-02T23:30:12.326Z,53.60
2023-03-02T23:32:40.160Z,54.20
2023-03-02T23:35:08.385Z,54.40
2023-03-02T23:37:36.209Z,55.20
2023-03-02T23:40:06.225Z,55.40
2023-03-02T23:42:34.127Z,57.00
2023-03-02T23:45:01.961Z,56.90
2023-03-02T23:47:29.812Z,57.20
2023-03-02T23:49:57.683Z,57.70
2023-03-02T23:52:25.549Z,57.60
2023-03-02T23:54:53.505Z,56.50
2023-03-02T23:57:22.754Z,56.30
2023-03-02T23:59:50.651Z,57.40
